Time;durP1;ratioP1;P1;durP2;ratioP2;P2;SDS_P1;SDS_P2;PMS_P1;PMS_P2;Temp;Humidity;BMP_temperature;BMP_pressure;BME280_temperature;BME280_humidity;BME280_pressure;Samples;Min_cycle;Max_cycle;Signal;HPM_P1;HPM_P2
2021/10/28 00:14:35;;;;;;;;;17.75;16.50;;;;;14.70;63.49;101520.03;5061887;28;45568;-70
2021/10/28 00:17:01;;;;;;;;;15.00;14.50;;;;;14.70;63.42;101520.03;5061609;28;46334;-70
2021/10/28 00:19:27;;;;;;;;;13.50;13.00;;;;;14.68;63.67;101512.00;5059608;28;45596;-70
2021/10/28 00:21:54;;;;;;;;;13.25;13.25;;;;;14.66;63.72;101513.03;5060171;28;45456;-70
2021/10/28 00:24:19;;;;;;;;;14.50;10.75;;;;;14.60;63.61;101498.88;5062146;28;45208;-70
2021/10/28 00:26:46;;;;;;;;;12.75;11.50;;;;;14.62;63.89;101501.50;5061538;28;45334;-70
2021/10/28 00:29:16;;;;;;;;;12.25;11.00;;;;;14.61;63.65;101499.75;5061846;28;45244;-70
2021/10/28 00:31:43;;;;;;;;;11.50;11.50;;;;;14.61;63.57;101495.25;5061365;28;45542;-70
2021/10/28 00:34:10;;;;;;;;;13.00;12.00;;;;;14.57;63.62;101484.66;5061878;28;45401;-70
2021/10/28 00:36:37;;;;;;;;;14.25;14.25;;;;;14.62;63.66;101486.25;5061344;28;46261;-70
2021/10/28 00:39:04;;;;;;;;;12.00;12.00;;;;;14.59;64.20;101485.50;5061881;28;45350;-70
2021/10/28 00:41:30;;;;;;;;;10.00;9.00;;;;;14.60;63.51;101481.88;5061122;28;45482;-70
2021/10/28 00:43:57;;;;;;;;;14.75;13.00;;;;;14.59;63.49;101481.00;5061604;28;45374;-70
2021/10/28 00:46:27;;;;;;;;;13.75;12.00;;;;;14.60;63.48;101481.88;5058020;28;47683;-70
2021/10/28 00:48:53;;;;;;;;;9.25;9.00;;;;;14.48;63.69;101461.69;5060884;28;45393;-70
2021/10/28 00:51:22;;;;;;;;;12.50;11.00;;;;;14.51;63.70;101472.31;5058222;28;45309;-70
2021/10/28 00:53:50;;;;;;;;;13.25;11.00;;;;;14.50;63.48;101475.06;5050130;28;45442;-70
2021/10/28 00:56:16;;;;;;;;;12.75;12.25;;;;;14.52;63.68;101478.59;5061367;28;45389;-70
2021/10/28 00:58:42;;;;;;;;;19.25;14.50;;;;;14.51;63.68;101475.00;5061134;28;46123;-70
2021/10/28 01:01:08;;;;;;;;;14.75;13.75;;;;;14.49;63.64;101466.13;5061153;28;45310;-70
2021/10/28 01:03:36;;;;;;;;;14.50;13.75;;;;;14.53;63.66;101469.56;5057181;28;45596;-70
2021/10/28 01:06:03;;;;;;;;;15.00;14.25;;;;;14.53;63.77;101470.44;5061215;28;45441;-70
2021/10/28 01:08:29;;;;;;;;;11.25;10.75;;;;;14.48;63.48;101453.63;5061103;28;45222;-70
2021/10/28 01:10:56;;;;;;;;;13.75;11.50;;;;;14.46;63.59;101461.72;5055105;28;45298;-70
2021/10/28 01:14:05;;;;;;;;;12.00;12.00;;;;;14.16;63.37;101412.72;5054065;28;45511;-70
2021/10/28 01:16:30;;;;;;;;;14.00;14.00;;;;;14.49;63.51;101458.06;5052870;28;46357;-70
2021/10/28 01:18:56;;;;;;;;;17.25;13.25;;;;;14.50;63.82;101450.88;5060046;28;45253;-70
2021/10/28 01:21:21;;;;;;;;;11.75;11.75;;;;;14.46;63.41;101453.66;5049120;28;45219;-70
2021/10/28 01:23:48;;;;;;;;;15.25;13.00;;;;;14.45;63.52;101451.94;5060959;28;45334;-70
2021/10/28 01:26:15;;;;;;;;;14.25;14.25;;;;;14.43;63.53;101453.81;5060763;28;45445;-70
2021/10/28 01:28:59;;;;;;;;;11.75;11.00;;;;;14.39;63.60;101443.22;5060856;28;45614;-70
2021/10/28 01:31:27;;;;;;;;;13.75;12.75;;;;;14.36;63.58;101440.66;5060512;28;45392;-70
2021/10/28 01:33:54;;;;;;;;;15.25;14.25;;;;;14.38;63.55;101450.41;5060044;28;45319;-70
2021/10/28 01:36:22;;;;;;;;;14.50;14.50;;;;;14.37;63.86;101431.69;5060474;28;46339;-70
2021/10/28 01:38:49;;;;;;;;;15.50;12.25;;;;;14.35;63.50;101439.78;5060899;28;45590;-70
2021/10/28 01:41:15;;;;;;;;;13.00;13.00;;;;;14.31;63.82;101435.44;5060665;28;45239;-70
2021/10/28 01:43:42;;;;;;;;;14.50;12.00;;;;;14.26;63.53;101432.91;5060224;28;45672;-70
2021/10/28 01:46:08;;;;;;;;;12.00;12.00;;;;;14.24;63.79;101432.09;5058746;28;47130;-70
2021/10/28 01:48:37;;;;;;;;;13.50;11.00;;;;;14.22;63.81;101433.97;5060282;28;45309;-70
2021/10/28 01:51:03;;;;;;;;;13.50;11.25;;;;;14.23;63.65;101429.47;5060906;28;45173;-70
2021/10/28 01:53:28;;;;;;;;;16.75;15.00;;;;;14.22;63.63;101433.97;5060246;28;45525;-70
2021/10/28 01:55:54;;;;;;;;;18.00;15.75;;;;;14.17;63.75;101427.91;5060124;28;45440;-70
2021/10/28 01:58:22;;;;;;;;;11.75;10.25;;;;;14.09;63.79;101420.13;5060399;28;45239;-70
2021/10/28 02:01:11;;;;;;;;;13.25;13.25;;;;;14.04;63.84;101422.09;5060115;28;45420;-70
2021/10/28 02:03:36;;;;;;;;;14.50;14.50;;;;;13.99;63.90;101413.34;5051163;28;45259;-71
2021/10/28 02:06:02;;;;;;;;;12.00;10.50;;;;;13.97;64.25;101419.72;5068495;28;47032;-70
2021/10/28 02:08:28;;;;;;;;;13.25;12.25;;;;;13.93;64.06;101416.22;5075917;28;45321;-70
2021/10/28 02:10:54;;;;;;;;;14.50;12.50;;;;;13.93;64.02;101418.03;5052924;28;45262;-70
2021/10/28 02:13:21;;;;;;;;;10.50;9.75;;;;;13.86;64.05;101401.28;5055773;28;45231;-70
2021/10/28 02:15:46;;;;;;;;;13.00;11.50;;;;;13.84;64.06;101400.47;5059650;28;45468;-70
2021/10/28 02:18:12;;;;;;;;;16.25;14.00;;;;;13.85;64.10;101399.56;5059892;28;45316;-70
2021/10/28 02:20:38;;;;;;;;;15.25;13.25;;;;;13.85;64.13;101392.38;5047775;28;45271;-70
2021/10/28 02:23:05;;;;;;;;;12.25;11.25;;;;;13.86;64.11;101388.72;5059610;28;45348;-70
2021/10/28 02:25:32;;;;;;;;;14.75;14.00;;;;;13.87;64.00;101406.59;5060047;28;46249;-70
2021/10/28 02:27:57;;;;;;;;;15.75;13.75;;;;;13.79;63.98;101378.28;5059752;28;45265;-70
2021/10/28 02:30:23;;;;;;;;;14.25;13.00;;;;;13.83;63.95;101387.97;5058882;28;45963;-70
2021/10/28 02:32:50;;;;;;;;;13.75;13.50;;;;;13.80;64.32;101380.03;5059100;28;45509;-70
2021/10/28 02:35:15;;;;;;;;;14.50;14.00;;;;;13.79;63.92;101373.78;5047849;28;46207;-70
2021/10/28 02:37:42;;;;;;;;;13.75;13.75;;;;;13.74;63.74;101366.84;5058486;28;45370;-70
2021/10/28 02:40:08;;;;;;;;;13.50;12.00;;;;;13.70;63.98;101369.63;5059941;28;45454;-70
2021/10/28 02:42:34;;;;;;;;;14.50;13.00;;;;;13.65;63.88;101363.56;5059520;28;45426;-70
2021/10/28 02:45:00;;;;;;;;;17.75;15.00;;;;;13.68;64.06;101370.59;5054820;28;47265;-70
2021/10/28 02:47:25;;;;;;;;;18.00;14.75;;;;;13.65;64.09;101368.06;5054255;28;45394;-70
2021/10/28 02:49:51;;;;;;;;;14.25;14.00;;;;;13.63;63.91;101365.44;5059865;28;45303;-70
2021/10/28 02:52:16;;;;;;;;;15.00;13.00;;;;;13.56;64.17;101358.50;5058976;28;45410;-70
2021/10/28 02:54:42;;;;;;;;;15.00;15.00;;;;;13.55;64.06;101366.59;5059622;28;45443;-70
2021/10/28 02:57:08;;;;;;;;;14.25;12.00;;;;;13.55;64.05;101370.19;5059454;28;45417;-70
2021/10/28 02:59:34;;;;;;;;;11.50;11.00;;;;;13.43;64.37;101359.84;5059785;28;45211;-70
2021/10/28 03:02:00;;;;;;;;;19.00;16.50;;;;;13.51;64.18;101369.41;5057047;28;45709;-70
2021/10/28 03:04:26;;;;;;;;;12.25;11.75;;;;;13.51;64.43;101369.41;5050690;28;46537;-70
2021/10/28 03:06:53;;;;;;;;;11.75;11.00;;;;;13.52;64.36;101356.88;5058067;28;45770;-70
2021/10/28 03:09:20;;;;;;;;;15.25;14.00;;;;;13.48;64.10;101356.09;5059670;28;45369;-70
2021/10/28 03:11:48;;;;;;;;;16.25;12.75;;;;;13.47;64.29;101348.97;5043118;28;45501;-70
2021/10/28 03:14:17;;;;;;;;;20.00;16.25;;;;;13.52;64.28;101359.56;5061540;28;47356;-70
2021/10/28 03:27:22;;;;;;;;;14.25;13.00;;;;;13.41;63.81;101342.94;5048370;28;45405;-70
2021/10/28 03:29:47;;;;;;;;;17.50;14.00;;;;;13.33;63.74;101328.00;5057857;28;46078;-70
2021/10/28 03:32:13;;;;;;;;;18.00;16.75;;;;;13.35;64.10;101327.97;5059069;28;45298;-69
2021/10/28 03:34:38;;;;;;;;;11.50;10.75;;;;;13.35;63.92;101338.69;5047644;28;45861;-70
2021/10/28 03:37:11;;;;;;;;;12.00;12.00;;;;;13.32;63.91;101331.63;5057800;28;45531;-70
2021/10/28 04:08:28;;;;;;;;;16.50;15.00;;;;;13.13;64.13;101312.56;5062067;28;45425;-70
2021/10/28 04:17:00;;;;;;;;;14.25;14.25;;;;;13.05;64.09;101314.63;5039325;28;45312;-70
2021/10/28 04:30:21;;;;;;;;;19.50;17.50;;;;;12.86;64.20;101313.50;5061598;28;45509;-70
2021/10/28 04:32:48;;;;;;;;;14.00;14.00;;;;;12.81;64.42;101299.38;5061622;28;45476;-70
2021/10/28 04:35:14;;;;;;;;;19.25;17.00;;;;;12.83;64.33;101317.16;5057222;28;45501;-70
2021/10/28 04:37:40;;;;;;;;;14.25;13.75;;;;;12.79;64.46;101313.69;5054009;28;47266;-70
2021/10/28 04:40:09;;;;;;;;;15.25;13.25;;;;;12.76;64.48;101308.44;5061558;28;45378;-70
2021/10/28 04:42:35;;;;;;;;;16.00;14.75;;;;;12.74;64.12;101306.72;5060359;28;45241;-70
2021/10/28 04:45:00;;;;;;;;;15.25;15.00;;;;;12.73;64.53;101313.00;5049359;28;45367;-70
2021/10/28 04:47:26;;;;;;;;;20.25;14.75;;;;;12.73;64.45;101313.91;5057874;28;47952;-70
2021/10/28 04:49:51;;;;;;;;;18.00;15.25;;;;;12.74;64.63;101320.13;5061587;28;45354;-70
2021/10/28 04:52:20;;;;;;;;;16.00;15.25;;;;;12.72;64.47;101324.66;5059246;28;45445;-70
2021/10/28 04:54:45;;;;;;;;;14.75;14.75;;;;;12.72;64.43;101322.84;5061508;28;45520;-70
2021/10/28 04:57:10;;;;;;;;;15.75;14.00;;;;;12.69;64.58;101324.75;5060730;28;46119;-70
2021/10/28 04:59:36;;;;;;;;;19.00;17.25;;;;;12.73;64.20;101315.69;5059864;28;45532;-70
2021/10/28 05:02:01;;;;;;;;;15.75;15.00;;;;;12.63;64.37;101303.50;5060849;28;45303;-70
2021/10/28 05:04:26;;;;;;;;;16.00;16.00;;;;;12.70;64.49;101321.16;5056888;28;45535;-70
2021/10/28 05:06:52;;;;;;;;;20.25;19.00;;;;;12.64;64.52;101311.50;5055848;28;46277;-70
2021/10/28 05:09:23;;;;;;;;;16.25;14.25;;;;;12.67;64.54;101321.25;5061372;28;45311;-70
2021/10/28 05:11:49;;;;;;;;;14.75;12.75;;;;;12.65;64.41;101309.72;5043769;28;45509;-70
2021/10/28 05:14:14;;;;;;;;;16.75;16.50;;;;;12.69;64.35;101314.03;5059184;28;45532;-70
2021/10/28 05:16:40;;;;;;;;;15.50;14.00;;;;;12.55;64.67;101296.59;5060762;28;45290;-70
2021/10/28 05:19:06;;;;;;;;;15.50;15.25;;;;;12.68;64.25;101312.28;5061191;28;45356;-70
2021/10/28 05:21:31;;;;;;;;;17.25;15.50;;;;;12.65;64.42;101302.56;5060316;28;45374;-70
2021/10/28 05:23:56;;;;;;;;;13.25;13.00;;;;;12.66;64.31;101304.28;5058541;28;45633;-70
2021/10/28 05:26:22;;;;;;;;;18.25;16.25;;;;;12.65;64.17;101309.72;5054483;28;45306;-70
2021/10/28 05:28:48;;;;;;;;;13.50;13.25;;;;;12.64;64.19;101314.19;5061009;28;45231;-70
2021/10/28 05:31:13;;;;;;;;;15.25;15.25;;;;;12.63;64.33;101319.59;5060975;28;45254;-70
2021/10/28 05:33:39;;;;;;;;;18.25;17.00;;;;;12.62;64.53;101307.13;5060567;28;45470;-70
2021/10/28 05:36:04;;;;;;;;;14.75;14.00;;;;;12.63;63.98;101319.59;5060240;28;45508;-70
2021/10/28 05:38:30;;;;;;;;;21.50;17.75;;;;;12.58;64.26;101315.25;5060852;28;45193;-70
2021/10/28 05:40:55;;;;;;;;;20.75;19.50;;;;;12.56;64.37;101309.09;5060695;28;45476;-70
2021/10/28 05:43:21;;;;;;;;;23.50;17.75;;;;;12.57;65.13;101312.63;5060012;28;45429;-70
2021/10/28 05:45:48;;;;;;;;;18.00;16.75;;;;;12.62;64.50;101316.03;5048462;28;45487;-70
2021/10/28 05:48:13;;;;;;;;;17.00;16.25;;;;;12.65;64.36;101315.06;5060489;28;45309;-70
2021/10/28 05:50:41;;;;;;;;;18.75;18.75;;;;;12.64;64.23;101316.84;5059076;28;45261;-70
2021/10/28 05:53:08;;;;;;;;;15.25;15.00;;;;;12.63;64.38;101312.44;5060428;28;45175;-70
2021/10/28 05:55:33;;;;;;;;;17.25;15.75;;;;;12.59;64.17;101310.78;5060244;28;45421;-70
2021/10/28 05:57:58;;;;;;;;;14.50;14.50;;;;;12.50;64.31;101301.22;5060612;28;45329;-70
2021/10/28 06:00:25;;;;;;;;;16.25;15.00;;;;;12.52;64.27;101303.88;5060228;28;45330;-69
2021/10/28 06:02:51;;;;;;;;;14.50;14.00;;;;;12.53;64.42;101300.25;5060586;28;45193;-70
2021/10/28 06:05:16;;;;;;;;;18.50;15.75;;;;;12.49;64.33;101303.97;5060198;28;47214;-70
2021/10/28 06:07:42;;;;;;;;;21.75;18.75;;;;;12.47;64.45;101304.00;5059325;28;45259;-70
2021/10/28 06:10:09;;;;;;;;;17.50;16.75;;;;;12.47;64.32;101300.47;5055660;28;45323;-70
2021/10/28 06:12:40;;;;;;;;;18.75;17.25;;;;;12.44;64.38;101297.88;5056517;28;45372;-70
2021/10/28 06:15:07;;;;;;;;;19.75;17.00;;;;;12.48;64.50;101304.88;5059208;28;45457;-70
2021/10/28 06:17:36;;;;;;;;;19.50;16.00;;;;;12.45;64.45;101302.31;5059864;28;46200;-74
2021/10/28 06:20:03;;;;;;;;;16.00;15.75;;;;;12.45;64.45;101297.81;5059717;28;45397;-81
2021/10/28 06:22:29;;;;;;;;;19.50;18.00;;;;;12.42;64.41;101295.25;5052067;28;45243;-81
2021/10/28 06:24:56;;;;;;;;;24.25;17.00;;;;;12.44;64.52;101300.56;5059674;28;45741;-82
2021/10/28 06:27:22;;;;;;;;;16.00;16.00;;;;;12.42;64.38;101300.59;5062821;28;45629;-84
2021/10/28 06:29:48;;;;;;;;;21.75;20.50;;;;;12.33;64.55;101292.84;5059543;28;45358;-84
2021/10/28 06:32:15;;;;;;;;;23.00;20.50;;;;;12.35;64.43;101307.94;5059917;28;45446;-86
2021/10/28 06:34:43;;;;;;;;;18.25;18.00;;;;;12.33;64.59;101308.91;5059575;28;45258;-83
2021/10/28 06:37:10;;;;;;;;;18.75;18.25;;;;;12.34;64.90;101318.69;5057812;28;45459;-85
2021/10/28 06:39:36;;;;;;;;;18.50;18.50;;;;;12.32;64.76;101312.50;5059665;28;45309;-85
2021/10/28 06:42:03;;;;;;;;;24.00;18.25;;;;;12.29;64.70;101313.47;5059718;28;45327;-85
2021/10/28 06:44:29;;;;;;;;;19.25;16.50;;;;;12.31;64.66;101313.44;5059186;28;46441;-85
2021/10/28 06:46:55;;;;;;;;;21.00;19.00;;;;;12.28;64.64;101311.75;5056900;28;45450;-86
2021/10/28 06:49:21;;;;;;;;;16.00;16.00;;;;;12.30;64.61;101317.03;5059638;28;45524;-80
2021/10/28 06:51:46;;;;;;;;;18.25;18.25;;;;;12.31;64.85;101321.47;5058299;28;45335;-81
2021/10/28 07:02:32;;;;;;;;;22.00;19.75;;;;;12.19;64.71;101312.88;5059063;28;45217;-71
2021/10/28 07:04:58;;;;;;;;;15.25;14.50;;;;;12.21;64.97;101326.22;5058984;28;46255;-71
2021/10/28 07:07:30;;;;;;;;;22.75;22.75;;;;;12.20;64.82;101314.63;5058058;28;45457;-71
2021/10/28 07:12:37;;;;;;;;;24.50;22.25;;;;;12.11;65.06;101298.88;5055490;28;45442;-71
2021/10/28 07:15:11;;;;;;;;;23.00;20.75;;;;;12.15;64.76;101305.88;5047649;28;48211;-71
2021/10/28 07:18:01;;;;;;;;;22.50;20.75;;;;;12.13;64.89;101305.03;5058704;28;45243;-71
2021/10/28 07:24:19;;;;;;;;;21.25;21.25;;;;;11.84;64.51;101263.94;5062854;28;45796;-70
2021/10/28 08:21:37;;;;;;;;;25.00;23.75;;;;;12.07;65.88;101296.31;5060929;28;45673;-71
2021/10/28 08:24:33;;;;;;;;;21.50;20.25;;;;;12.05;65.66;101285.66;5048306;28;45759;-71
2021/10/28 08:29:49;;;;;;;;;20.00;18.50;;;;;12.06;66.18;101284.72;5061332;28;45326;-71
2021/10/28 08:32:15;;;;;;;;;25.50;22.75;;;;;12.12;65.96;101299.75;5045718;28;45548;-71
2021/10/28 08:34:42;;;;;;;;;24.00;21.75;;;;;12.14;65.94;101288.03;5060409;28;45464;-71
2021/10/28 08:37:18;;;;;;;;;20.00;20.00;;;;;12.16;66.11;101288.91;5060821;28;45505;-71
2021/10/28 08:39:46;;;;;;;;;22.50;19.75;;;;;12.22;65.99;101287.81;5059109;28;45514;-71
2021/10/28 08:42:14;;;;;;;;;22.50;20.75;;;;;12.26;65.78;101288.59;5060467;28;45431;-71
2021/10/28 08:44:41;;;;;;;;;20.00;18.75;;;;;12.34;65.81;101281.22;5060609;28;45724;-71
2021/10/28 08:47:11;;;;;;;;;25.00;19.75;;;;;12.35;65.84;101282.97;5058909;28;45537;-71
2021/10/28 08:55:03;;;;;;;;;22.00;19.50;;;;;12.44;65.65;101268.41;5060577;28;45386;-71
2021/10/28 09:25:45;;;;;;;;;17.25;17.25;;;;;12.90;65.48;101224.06;5046499;28;45549;-71
2021/10/28 09:28:32;;;;;;;;;24.25;21.00;;;;;12.91;65.47;101224.00;5060622;28;45429;-71
2021/10/28 09:31:13;;;;;;;;;20.25;20.00;;;;;12.91;65.27;101215.97;5059600;28;45401;-71
2021/10/28 09:51:01;;;;;;;;;23.75;22.50;;;;;13.31;65.01;101209.19;5060325;28;45391;-72
2021/10/28 09:53:38;;;;;;;;;20.00;19.00;;;;;13.26;65.14;101196.88;5060227;28;45275;-71
2021/10/28 09:58:47;;;;;;;;;20.00;19.00;;;;;13.45;65.02;101206.03;5060094;28;45626;-70
2021/10/28 10:01:46;;;;;;;;;23.75;20.50;;;;;13.55;65.03;101203.88;5059132;28;45444;-70
2021/10/28 10:04:14;;;;;;;;;18.00;18.00;;;;;13.61;64.68;101209.00;5059409;28;45367;-70
2021/10/28 10:06:42;;;;;;;;;16.50;16.25;;;;;13.63;64.68;101198.22;5057818;28;46077;-70
2021/10/28 10:09:08;;;;;;;;;15.75;15.25;;;;;13.71;64.85;101204.16;5059559;28;45220;-70
2021/10/28 10:11:34;;;;;;;;;17.25;15.00;;;;;13.73;64.75;101194.25;5053859;28;45294;-70
2021/10/28 10:14:00;;;;;;;;;16.75;16.50;;;;;13.83;64.77;101189.41;5054121;28;45326;-71
2021/10/28 10:16:28;;;;;;;;;19.25;19.25;;;;;13.83;64.45;101175.97;5051044;28;46533;-71
2021/10/28 10:18:53;;;;;;;;;19.50;17.00;;;;;13.95;64.65;101182.69;5057951;28;45519;-72
2021/10/28 10:21:46;;;;;;;;;17.25;17.25;;;;;14.01;64.29;101179.75;5059131;28;45433;-72
2021/10/28 11:03:13;;;;;;;;;20.25;19.00;;;;;14.36;63.58;101161.34;5049804;28;45322;-71
2021/10/28 11:28:51;;;;;;;;;23.00;20.50;;;;;15.42;62.05;101100.28;5062533;28;45646;-72
2021/10/28 12:45:29;;;;;;;;;9.00;8.25;;;;;16.93;59.14;100930.13;5046053;28;45349;-74
2021/10/28 12:48:07;;;;;;;;;10.50;9.75;;;;;16.99;58.35;100935.16;5060691;28;45485;-74
2021/10/28 12:56:43;;;;;;;;;9.00;9.00;;;;;17.16;57.96;100907.25;5061009;28;45447;-76
2021/10/28 14:20:51;;;;;;;;;8.50;8.50;;;;;18.14;54.45;100804.19;5059115;28;45360;-77
2021/10/28 15:28:40;;;;;;;;;10.50;7.00;;;;;18.18;52.40;100752.69;5056452;28;45839;-76
2021/10/28 15:38:39;;;;;;;;;6.00;6.00;;;;;18.10;51.68;100736.94;5057363;28;45460;-76
2021/10/28 15:59:38;;;;;;;;;7.25;6.00;;;;;18.01;51.96;100703.31;5061405;28;45695;-76
2021/10/28 16:23:54;;;;;;;;;12.00;10.50;;;;;17.94;52.07;100691.13;5049873;28;45385;-76
2021/10/28 16:26:20;;;;;;;;;6.00;6.00;;;;;17.93;52.21;100698.38;5046854;28;45409;-76
2021/10/28 16:28:45;;;;;;;;;5.75;5.75;;;;;17.91;52.63;100688.66;5060308;28;45566;-76
2021/10/28 16:31:14;;;;;;;;;8.75;8.50;;;;;17.87;52.13;100682.56;5055348;28;46257;-76
2021/10/28 16:33:41;;;;;;;;;11.00;10.25;;;;;17.86;52.19;100686.22;5060827;28;45652;-76
2021/10/28 16:36:06;;;;;;;;;10.50;10.50;;;;;17.90;52.17;100684.22;5059780;28;45496;-76
2021/10/28 16:38:32;;;;;;;;;6.50;6.50;;;;;17.83;52.37;100675.59;5055572;28;45865;-77
2021/10/28 16:40:57;;;;;;;;;7.75;7.75;;;;;17.86;52.69;100682.63;5055064;28;45970;-76
2021/10/28 16:43:23;;;;;;;;;10.00;9.50;;;;;17.82;52.49;100678.41;5060145;28;45444;-76
2021/10/28 16:45:48;;;;;;;;;11.75;11.25;;;;;17.73;52.13;100661.81;5059300;28;45405;-79
2021/10/28 16:48:15;;;;;;;;;8.75;8.75;;;;;17.74;52.92;100668.97;5060299;28;45409;-76
2021/10/28 16:50:41;;;;;;;;;6.00;6.00;;;;;17.75;53.00;100667.97;5060133;28;46192;-76
2021/10/28 16:53:07;;;;;;;;;10.75;10.75;;;;;17.71;52.62;100663.75;5059807;28;45393;-75
2021/10/28 16:55:33;;;;;;;;;12.75;11.75;;;;;17.72;52.61;100667.31;5060309;28;45308;-76
2021/10/28 16:57:58;;;;;;;;;12.25;10.50;;;;;17.73;52.95;100669.91;5060153;28;45298;-76
2021/10/28 17:00:24;;;;;;;;;15.00;13.50;;;;;17.73;52.67;100674.47;5048654;28;45461;-76
2021/10/28 17:02:49;;;;;;;;;12.50;11.50;;;;;17.67;52.53;100661.34;5060084;28;45663;-76
2021/10/28 17:05:16;;;;;;;;;11.00;11.00;;;;;17.67;53.00;100666.75;5060228;28;45381;-76
2021/10/28 17:07:42;;;;;;;;;10.50;10.50;;;;;17.65;53.04;100671.38;5060044;28;45392;-76
2021/10/28 17:10:08;;;;;;;;;11.50;11.50;;;;;17.66;53.09;100673.97;5059949;28;45439;-76
2021/10/28 17:12:35;;;;;;;;;10.50;10.50;;;;;17.64;52.97;100677.72;5060056;28;45331;-76
2021/10/28 17:15:00;;;;;;;;;9.25;8.75;;;;;17.61;52.70;100668.00;5046652;28;45625;-76
2021/10/28 17:17:26;;;;;;;;;10.50;9.75;;;;;17.56;53.13;100676.38;5058768;28;45414;-76
2021/10/28 17:19:51;;;;;;;;;10.00;9.25;;;;;17.59;53.13;100680.72;5061843;28;47360;-76
2021/10/28 17:22:18;;;;;;;;;10.50;10.50;;;;;17.54;53.07;100669.34;5059606;28;45398;-76
2021/10/28 17:24:48;;;;;;;;;11.00;9.50;;;;;17.53;53.10;100675.72;5056398;28;45240;-76
2021/10/28 17:27:14;;;;;;;;;8.50;8.50;;;;;17.50;53.11;100679.47;5060824;28;45507;-76
2021/10/28 17:29:39;;;;;;;;;8.50;8.50;;;;;17.51;53.51;100683.06;5059159;28;46018;-76
2021/10/28 17:32:07;;;;;;;;;12.25;10.50;;;;;17.52;53.14;100672.13;5060816;28;45315;-76
2021/10/28 17:34:34;;;;;;;;;12.00;11.00;;;;;17.50;53.35;100681.31;5060912;28;45293;-76
2021/10/28 17:37:00;;;;;;;;;10.75;9.50;;;;;17.50;53.68;100681.31;5060442;28;45350;-76
2021/10/28 17:39:27;;;;;;;;;14.50;11.50;;;;;17.43;53.15;100663.78;5060599;28;46344;-76
2021/10/28 17:41:54;;;;;;;;;11.50;10.00;;;;;17.45;53.16;100670.78;5059707;28;45814;-76
2021/10/28 17:44:23;;;;;;;;;13.00;12.00;;;;;17.39;53.52;100663.94;5058454;28;45506;-76
2021/10/28 17:46:48;;;;;;;;;15.00;11.25;;;;;17.38;53.32;100680.22;5058134;28;46860;-76
2021/10/28 17:49:14;;;;;;;;;10.25;8.50;;;;;17.31;53.66;100673.50;5060688;28;45401;-77
2021/10/28 17:51:41;;;;;;;;;14.25;12.50;;;;;17.32;53.66;100677.91;5056884;28;45287;-77
2021/10/28 17:54:11;;;;;;;;;12.25;12.25;;;;;17.32;53.65;100672.50;5060825;28;45655;-77
2021/10/28 17:56:38;;;;;;;;;11.25;11.00;;;;;17.27;54.04;100664.69;5069269;28;45459;-76
2021/10/28 17:59:05;;;;;;;;;12.00;11.00;;;;;17.28;53.58;100670.97;5060154;28;45292;-75
2021/10/28 18:01:32;;;;;;;;;11.25;11.25;;;;;17.24;53.79;100662.22;5060364;28;45555;-75
2021/10/28 18:03:59;;;;;;;;;13.00;10.50;;;;;17.26;53.92;100665.69;5059497;28;45402;-75
2021/10/28 18:06:27;;;;;;;;;13.75;12.50;;;;;17.25;53.67;100663.06;5049332;28;45483;-74
2021/10/28 18:08:52;;;;;;;;;13.75;11.75;;;;;17.21;54.24;100668.66;5056015;28;46087;-75
2021/10/28 18:11:18;;;;;;;;;12.25;12.00;;;;;17.18;53.93;100659.88;5050280;28;45778;-74
2021/10/28 18:13:43;;;;;;;;;12.25;11.75;;;;;17.13;53.85;100657.47;5053962;28;45418;-74
2021/10/28 18:16:08;;;;;;;;;12.50;12.25;;;;;17.05;54.21;100651.66;5039440;28;45411;-74
2021/10/28 18:18:37;;;;;;;;;12.00;12.00;;;;;17.14;53.87;100664.59;5041745;28;45478;-73
2021/10/28 18:21:03;;;;;;;;;14.00;14.00;;;;;17.14;54.09;100661.91;5041439;28;45799;-72
2021/10/28 18:23:29;;;;;;;;;13.75;12.25;;;;;17.14;53.98;100669.09;5067587;28;45461;-75
2021/10/28 18:25:55;;;;;;;;;15.50;13.25;;;;;17.08;53.83;100654.19;5043152;28;45596;-73
2021/10/28 18:28:21;;;;;;;;;14.00;11.75;;;;;17.12;54.30;100665.66;5052845;28;46097;-74
2021/10/28 18:30:48;;;;;;;;;11.00;11.00;;;;;17.07;54.29;100654.28;5056018;28;45452;-73
2021/10/28 18:33:13;;;;;;;;;13.50;13.50;;;;;17.03;54.02;100651.75;5049966;28;45499;-74
2021/10/28 18:35:41;;;;;;;;;12.50;12.50;;;;;17.02;54.49;100652.72;5055512;28;45378;-73
2021/10/28 18:38:09;;;;;;;;;14.75;14.25;;;;;16.95;54.51;100637.00;5048461;28;45545;-73
2021/10/28 18:40:35;;;;;;;;;10.25;10.00;;;;;16.99;54.30;100652.91;5052135;28;46035;-74
2021/10/28 18:43:01;;;;;;;;;13.50;12.50;;;;;16.96;54.68;100644.16;5045857;28;45409;-75
2021/10/28 18:45:26;;;;;;;;;12.75;12.50;;;;;16.96;54.43;100647.72;5050752;28;45687;-74
2021/10/28 18:47:51;;;;;;;;;17.25;14.00;;;;;16.98;54.81;100650.31;5043280;28;45914;-73
2021/10/28 18:50:17;;;;;;;;;12.25;12.00;;;;;16.96;54.72;100647.72;5051691;28;45649;-74
2021/10/28 18:52:43;;;;;;;;;14.50;13.25;;;;;16.86;54.51;100624.97;5055724;28;45428;-73
2021/10/28 18:55:09;;;;;;;;;17.00;16.00;;;;;16.89;54.48;100632.88;5049853;28;45477;-74
2021/10/28 18:57:34;;;;;;;;;12.00;12.00;;;;;16.90;54.51;100626.50;5048678;28;45373;-73
2021/10/28 19:00:00;;;;;;;;;12.25;11.25;;;;;16.89;54.74;100627.47;5041679;28;45533;-75
2021/10/28 19:02:27;;;;;;;;;13.25;13.25;;;;;16.88;54.52;100631.13;5047147;28;45472;-76
2021/10/28 19:04:53;;;;;;;;;15.00;14.25;;;;;16.83;54.51;100625.97;5054500;28;45806;-80
2021/10/28 19:07:19;;;;;;;;;12.50;11.00;;;;;16.84;54.51;100626.84;5042760;28;45856;-82
2021/10/28 19:09:45;;;;;;;;;12.00;10.50;;;;;16.85;54.72;100631.31;5043592;28;45488;-80
2021/10/28 19:12:10;;;;;;;;;14.25;13.00;;;;;16.85;54.69;100621.38;5054327;28;45492;-80
2021/10/28 19:14:42;;;;;;;;;13.75;13.50;;;;;16.81;54.86;100613.56;5042913;28;45766;-74
2021/10/28 19:17:08;;;;;;;;;14.75;12.50;;;;;16.84;54.85;100626.84;5048000;28;45813;-75
2021/10/28 19:19:33;;;;;;;;;14.00;12.50;;;;;16.72;55.08;100597.94;5056327;28;45492;-75
2021/10/28 19:21:59;;;;;;;;;15.25;13.25;;;;;16.77;54.55;100602.09;5050474;28;45790;-80
2021/10/28 19:24:24;;;;;;;;;15.50;14.25;;;;;16.80;54.80;100609.97;5046913;28;45511;-75
2021/10/28 19:26:49;;;;;;;;;13.75;13.00;;;;;16.82;54.62;100609.88;5058367;28;45830;-75
2021/10/28 19:29:16;;;;;;;;;16.50;13.00;;;;;16.79;54.60;100607.38;5052070;28;45498;-75
2021/10/28 19:31:54;;;;;;;;;12.25;12.25;;;;;16.77;54.98;100609.28;5048350;28;45817;-74
2021/10/28 19:34:19;;;;;;;;;15.75;15.75;;;;;16.74;54.89;100604.09;5042410;28;45763;-73
2021/10/28 19:39:26;;;;;;;;;15.50;14.00;;;;;16.74;54.81;100604.97;5044032;28;45583;-72
2021/10/28 19:47:03;;;;;;;;;15.75;14.50;;;;;16.75;55.25;100598.59;5049484;28;45543;-74
2021/10/28 19:49:29;;;;;;;;;14.25;12.75;;;;;16.74;54.99;100583.41;5049435;28;45401;-74
2021/10/28 19:51:54;;;;;;;;;18.00;17.50;;;;;16.72;54.92;100587.16;5047877;28;45422;-73
2021/10/28 19:54:20;;;;;;;;;15.00;15.00;;;;;16.66;55.10;100583.88;5058573;28;45587;-74
2021/10/28 19:56:45;;;;;;;;;15.25;13.50;;;;;16.50;55.30;100556.09;5057187;28;48268;-73
2021/10/28 19:59:15;;;;;;;;;13.25;12.75;;;;;16.67;55.18;100582.91;5051645;28;45401;-72
2021/10/28 20:04:25;;;;;;;;;13.25;12.25;;;;;16.71;55.35;100597.06;5057265;28;45449;-71
2021/10/28 20:22:41;;;;;;;;;16.25;14.00;;;;;16.59;55.61;100581.63;5057354;28;45547;-76
2021/10/28 20:25:11;;;;;;;;;12.75;12.75;;;;;16.61;55.44;100577.88;5057948;28;45452;-76
2021/10/28 20:27:37;;;;;;;;;16.00;14.25;;;;;16.64;55.42;100588.50;5055982;28;45835;-76
2021/10/28 20:30:04;;;;;;;;;14.75;13.50;;;;;16.63;55.81;100589.44;5057842;28;45489;-75